createdAt,value
2023-06-22T00:00:54.148Z,58.91
2023-06-22T00:03:24.087Z,58.85
2023-06-22T00:05:51.261Z,59.09
2023-06-22T00:08:18.823Z,59.06
2023-06-22T00:10:45.824Z,59.33
2023-06-22T00:13:13.670Z,59.49
2023-06-22T00:15:42.405Z,59.73
2023-06-22T00:18:10.894Z,59.39
2023-06-22T00:20:38.269Z,59.47
2023-06-22T00:23:09.589Z,59.61
2023-06-22T00:25:38.161Z,59.69
2023-06-22T00:28:05.844Z,59.51
2023-06-22T00:30:33.705Z,59.76
2023-06-22T00:33:00.587Z,59.52
2023-06-22T00:35:30.206Z,59.60
2023-06-22T00:38:01.839Z,59.86
2023-06-22T00:40:29.817Z,59.91
2023-06-22T00:42:57.000Z,59.60
2023-06-22T00:45:24.847Z,60.05
2023-06-22T00:47:53.729Z,60.09
2023-06-22T00:50:27.210Z,60.76
2023-06-22T00:52:57.624Z,60.30
2023-06-22T00:55:25.109Z,60.09
2023-06-22T00:57:51.813Z,60.15
2023-06-22T01:00:20.629Z,60.22
2023-06-22T01:02:48.029Z,59.96
2023-06-22T01:05:15.817Z,60.34
2023-06-22T01:07:42.501Z,60.35
2023-06-22T01:10:17.177Z,60.97
2023-06-22T01:12:49.821Z,61.14
2023-06-22T01:15:34.507Z,61.55
2023-06-22T01:18:04.988Z,60.73
2023-06-22T01:20:33.512Z,60.75
2023-06-22T01:23:12.090Z,61.10
2023-06-22T01:25:38.676Z,60.82
2023-06-22T01:28:27.049Z,61.08
2023-06-22T01:31:04.618Z,61.00
2023-06-22T01:33:35.011Z,61.26
2023-06-22T01:36:03.409Z,61.13
2023-06-22T01:38:31.506Z,61.21
2023-06-22T01:40:59.981Z,61.10
2023-06-22T01:43:27.785Z,61.28
2023-06-22T01:45:58.811Z,61.04
2023-06-22T01:48:27.107Z,61.01
2023-06-22T01:50:54.898Z,61.35
2023-06-22T01:53:25.627Z,61.51
2023-06-22T01:55:52.360Z,61.57
2023-06-22T01:58:21.893Z,61.61
2023-06-22T02:00:54.329Z,61.84
2023-06-22T02:03:27.448Z,62.35
2023-06-22T02:06:01.926Z,61.90
2023-06-22T02:08:51.923Z,63.04
2023-06-22T02:11:21.413Z,61.90
2023-06-22T02:13:48.711Z,61.79
2023-06-22T02:16:17.972Z,62.38
2023-06-22T02:18:48.816Z,62.52
2023-06-22T02:21:15.334Z,62.45
2023-06-22T02:23:41.797Z,62.66
2023-06-22T02:26:08.699Z,62.95
2023-06-22T02:28:35.186Z,62.74
2023-06-22T02:31:01.859Z,62.82
2023-06-22T02:33:28.535Z,62.84
2023-06-22T02:35:55.163Z,63.51
2023-06-22T02:38:21.782Z,63.16
2023-06-22T02:40:48.376Z,63.39
2023-06-22T02:43:14.957Z,63.30
2023-06-22T02:45:41.463Z,63.57
2023-06-22T02:48:08.160Z,63.54
2023-06-22T02:50:34.742Z,64.01
2023-06-22T02:53:01.250Z,63.88
2023-06-22T02:55:27.777Z,63.78
2023-06-22T02:57:54.273Z,64.45
2023-06-22T03:00:20.992Z,64.27
2023-06-22T03:02:49.320Z,65.06
2023-06-22T03:05:19.250Z,64.31
2023-06-22T03:07:46.666Z,64.81
2023-06-22T03:10:14.572Z,64.95
2023-06-22T03:12:41.991Z,65.08
2023-06-22T03:15:13.532Z,65.55
2023-06-22T03:17:41.357Z,65.54
2023-06-22T03:20:10.384Z,65.51
2023-06-22T03:22:37.934Z,65.50
2023-06-22T03:25:05.355Z,65.90
2023-06-22T03:27:31.839Z,65.94
2023-06-22T03:29:58.965Z,66.21
2023-06-22T03:32:26.516Z,65.80
2023-06-22T03:34:53.017Z,66.28
2023-06-22T03:37:19.558Z,67.18
2023-06-22T03:39:46.140Z,67.13
2023-06-22T03:42:12.636Z,67.43
2023-06-22T03:44:39.111Z,66.62
2023-06-22T03:47:05.694Z,67.00
2023-06-22T03:49:32.172Z,67.22
2023-06-22T03:51:58.668Z,67.28
2023-06-22T03:54:25.194Z,67.38
2023-06-22T03:56:51.689Z,67.68
2023-06-22T03:59:18.879Z,67.39
2023-06-22T04:01:45.903Z,67.50
2023-06-22T04:04:12.504Z,67.85
2023-06-22T04:06:39.114Z,67.98
2023-06-22T04:09:07.402Z,68.51
2023-06-22T04:11:33.898Z,68.00
2023-06-22T04:14:01.911Z,68.49
2023-06-22T04:16:28.490Z,68.22
2023-06-22T04:18:55.066Z,70.31
2023-06-22T04:21:21.638Z,69.35
2023-06-22T04:23:48.262Z,69.41
2023-06-22T04:26:17.722Z,69.03
2023-06-22T04:28:44.411Z,69.06
2023-06-22T04:31:11.036Z,69.38
2023-06-22T04:33:41.735Z,69.25
2023-06-22T04:36:08.269Z,69.78
2023-06-22T04:38:34.769Z,70.38
2023-06-22T04:41:04.588Z,70.51
2023-06-22T04:43:31.654Z,70.36
2023-06-22T04:46:04.334Z,70.79
2023-06-22T04:48:34.185Z,70.44
2023-06-22T04:51:04.808Z,70.78
2023-06-22T04:53:32.521Z,70.91
2023-06-22T04:55:59.125Z,71.14
2023-06-22T04:58:28.122Z,70.82
2023-06-22T05:00:54.647Z,70.84
2023-06-22T05:03:21.255Z,71.54
2023-06-22T05:05:48.017Z,72.17
2023-06-22T05:08:14.912Z,71.83
2023-06-22T05:10:51.474Z,73.51
2023-06-22T05:13:27.942Z,72.16
2023-06-22T05:16:02.342Z,73.06
2023-06-22T05:18:30.658Z,72.61
2023-06-22T05:20:58.159Z,72.38
2023-06-22T05:23:24.694Z,71.98
2023-06-22T05:25:52.312Z,71.82
2023-06-22T05:28:23.917Z,72.52
2023-06-22T05:30:50.560Z,73.73
2023-06-22T05:33:17.245Z,72.19
2023-06-22T05:35:43.807Z,72.41
2023-06-22T05:38:10.375Z,72.51
2023-06-22T05:40:36.910Z,72.51
2023-06-22T05:43:03.410Z,73.17
2023-06-22T05:45:29.941Z,72.44
2023-06-22T05:47:56.549Z,72.56
2023-06-22T05:50:23.116Z,72.85
2023-06-22T05:52:49.602Z,73.01
2023-06-22T05:55:16.599Z,73.02
2023-06-22T05:57:43.148Z,73.63
2023-06-22T06:00:12.359Z,74.06
2023-06-22T06:02:44.704Z,72.82
2023-06-22T06:05:14.858Z,72.95
2023-06-22T06:07:42.618Z,73.36
2023-06-22T06:10:10.070Z,73.32
2023-06-22T06:12:36.852Z,72.41
2023-06-22T06:15:04.579Z,72.59
2023-06-22T06:17:31.426Z,72.84
2023-06-22T06:20:07.976Z,72.37
2023-06-22T06:22:34.489Z,72.62
2023-06-22T06:25:01.012Z,72.84
2023-06-22T06:27:31.040Z,74.04
2023-06-22T06:29:57.619Z,77.05
2023-06-22T06:32:24.239Z,74.53
2023-06-22T06:34:50.753Z,74.26
2023-06-22T06:37:19.449Z,79.90
2023-06-22T06:39:46.003Z,76.55
2023-06-22T06:42:12.572Z,75.78
2023-06-22T06:44:39.586Z,76.22
2023-06-22T06:47:06.165Z,77.02
2023-06-22T06:49:32.679Z,77.02
2023-06-22T06:51:59.165Z,77.21
2023-06-22T06:54:25.719Z,78.00
2023-06-22T06:56:52.263Z,79.24
2023-06-22T07:14:02.537Z,78.33
2023-06-22T07:16:29.767Z,77.57
2023-06-22T07:18:56.640Z,77.35
2023-06-22T07:21:23.217Z,77.31
2023-06-22T07:23:49.794Z,78.13
2023-06-22T07:26:18.032Z,78.16
2023-06-22T07:28:44.733Z,76.96
2023-06-22T07:31:11.354Z,76.40
2023-06-22T07:33:37.889Z,74.90
2023-06-22T07:36:08.705Z,74.35
2023-06-22T07:38:36.213Z,73.48
2023-06-22T07:41:06.486Z,71.78
2023-06-22T07:43:34.257Z,67.24
2023-06-22T07:46:01.085Z,65.62
2023-06-22T07:48:27.947Z,67.13
2023-06-22T07:50:54.785Z,66.29
2023-06-22T07:53:22.969Z,64.93
2023-06-22T07:55:50.322Z,60.28
2023-06-22T07:58:17.353Z,62.56
2023-06-22T08:00:43.898Z,61.63
2023-06-22T08:03:10.485Z,61.72
2023-06-22T08:05:37.368Z,58.85
2023-06-22T08:08:04.259Z,57.77
2023-06-22T08:10:30.852Z,55.68
2023-06-22T08:12:57.468Z,58.87
2023-06-22T08:15:24.058Z,56.40
2023-06-22T08:17:50.728Z,56.07
2023-06-22T08:20:17.424Z,58.26
2023-06-22T08:22:44.994Z,57.48
2023-06-22T08:25:12.188Z,58.37
2023-06-22T08:27:38.834Z,58.75
2023-06-22T08:30:06.112Z,59.01
2023-06-22T08:32:34.011Z,58.95
2023-06-22T08:35:01.327Z,57.99
2023-06-22T08:37:31.824Z,58.66
2023-06-22T08:40:00.600Z,57.40
2023-06-22T08:42:27.364Z,57.36
2023-06-22T08:44:54.851Z,58.31
2023-06-22T08:47:22.563Z,59.19
2023-06-22T08:49:49.222Z,60.01
2023-06-22T08:52:16.026Z,59.51
2023-06-22T08:54:42.562Z,59.67
2023-06-22T08:57:09.087Z,59.91
2023-06-22T08:59:35.780Z,60.31
2023-06-22T09:02:02.328Z,59.68
2023-06-22T09:04:29.245Z,59.75
2023-06-22T09:06:56.112Z,58.26
2023-06-22T09:09:23.019Z,58.93
2023-06-22T09:11:50.726Z,60.03
2023-06-22T09:14:17.432Z,59.60
2023-06-22T09:16:44.050Z,59.15
2023-06-22T09:19:10.751Z,59.07
2023-06-22T09:21:37.836Z,59.40
2023-06-22T09:24:04.706Z,58.85
2023-06-22T09:26:31.281Z,58.50
2023-06-22T09:28:59.163Z,57.95
2023-06-22T09:31:28.710Z,58.10
2023-06-22T09:33:55.878Z,57.76
2023-06-22T09:36:22.863Z,56.77
2023-06-22T09:38:50.279Z,57.79
2023-06-22T09:41:17.129Z,56.75
2023-06-22T09:43:43.700Z,55.73
2023-06-22T09:46:10.644Z,56.56
2023-06-22T09:48:39.269Z,55.95
2023-06-22T09:51:07.453Z,55.14
2023-06-22T09:53:35.692Z,56.73
2023-06-22T09:56:03.162Z,56.77
2023-06-22T09:58:29.738Z,56.04
2023-06-22T10:00:56.336Z,55.72
2023-06-22T10:03:24.144Z,56.08
2023-06-22T10:05:50.844Z,55.84
2023-06-22T10:08:17.402Z,55.25
2023-06-22T10:10:44.050Z,55.42
2023-06-22T10:13:11.773Z,55.87
2023-06-22T10:15:38.885Z,56.00
2023-06-22T10:18:05.756Z,56.82
2023-06-22T10:20:32.506Z,57.18
2023-06-22T10:23:00.116Z,56.83
2023-06-22T10:25:27.989Z,55.89
2023-06-22T10:27:54.815Z,56.06
2023-06-22T10:30:22.338Z,56.51
2023-06-22T10:32:48.974Z,57.34
2023-06-22T10:35:17.317Z,56.57
2023-06-22T10:37:47.909Z,57.04
2023-06-22T10:40:16.121Z,60.44
2023-06-22T10:42:43.129Z,61.57
2023-06-22T10:45:10.199Z,64.56
2023-06-22T10:47:37.409Z,68.38
2023-06-22T10:50:04.921Z,73.14
2023-06-22T10:52:31.603Z,75.05
2023-06-22T10:54:58.742Z,77.40
2023-06-22T10:57:25.358Z,79.87
2023-06-22T10:59:51.965Z,79.24
2023-06-22T11:02:18.696Z,79.20
2023-06-22T11:04:45.499Z,79.03
2023-06-22T11:07:12.068Z,74.12
2023-06-22T11:09:39.364Z,75.29
2023-06-22T11:12:07.336Z,79.33
2023-06-22T11:14:36.857Z,77.35
2023-06-22T11:17:03.522Z,78.19
2023-06-22T11:19:30.085Z,79.45
2023-06-22T11:24:39.106Z,73.60
2023-06-22T11:27:07.051Z,58.10
2023-06-22T11:29:37.974Z,48.16
2023-06-22T11:32:06.605Z,44.20
2023-06-22T11:34:33.227Z,41.56
2023-06-22T11:36:59.840Z,42.18
2023-06-22T11:39:34.253Z,42.94
2023-06-22T11:42:12.892Z,43.62
2023-06-22T11:44:39.545Z,43.55
2023-06-22T11:47:06.799Z,43.47
2023-06-22T11:49:33.408Z,45.90
2023-06-22T11:52:00.315Z,45.40
2023-06-22T11:54:26.826Z,43.69
2023-06-22T11:56:53.615Z,42.20
2023-06-22T11:59:20.250Z,40.76
2023-06-22T12:01:47.530Z,41.06
2023-06-22T12:04:15.547Z,40.46
2023-06-22T12:06:44.050Z,41.23
2023-06-22T12:09:11.325Z,42.43
2023-06-22T12:11:37.878Z,44.97
2023-06-22T12:14:05.593Z,44.85
2023-06-22T12:16:32.244Z,45.02
2023-06-22T12:18:58.804Z,46.02
2023-06-22T12:21:25.392Z,45.93
2023-06-22T12:23:52.033Z,45.66
2023-06-22T12:26:18.646Z,44.70
2023-06-22T12:28:45.201Z,44.92
2023-06-22T12:31:11.931Z,45.84
2023-06-22T12:33:38.604Z,46.04
2023-06-22T12:36:06.162Z,44.42
2023-06-22T12:38:32.752Z,47.38
2023-06-22T12:40:59.455Z,50.99
2023-06-22T12:43:26.028Z,55.69
2023-06-22T12:45:52.641Z,58.63
2023-06-22T12:48:19.177Z,59.16
2023-06-22T12:50:45.826Z,61.71
2023-06-22T12:53:12.355Z,66.01
2023-06-22T12:55:38.901Z,66.49
2023-06-22T12:58:05.441Z,69.01
2023-06-22T13:00:32.417Z,67.07
2023-06-22T13:02:59.613Z,69.91
2023-06-22T13:05:26.181Z,72.89
2023-06-22T13:07:52.721Z,70.53
2023-06-22T13:10:19.268Z,71.34
2023-06-22T13:12:45.788Z,72.08
2023-06-22T13:15:12.429Z,72.51
2023-06-22T13:17:39.170Z,71.10
2023-06-22T13:20:06.832Z,74.65
2023-06-22T13:22:41.190Z,72.51
2023-06-22T13:25:14.397Z,71.91
2023-06-22T13:27:42.171Z,72.78
2023-06-22T13:30:12.202Z,72.67
2023-06-22T13:32:42.801Z,73.36
2023-06-22T13:35:13.299Z,74.76
2023-06-22T13:37:40.120Z,76.17
2023-06-22T13:40:08.057Z,74.36
2023-06-22T13:42:35.093Z,75.73
2023-06-22T13:45:01.970Z,75.23
2023-06-22T13:47:30.802Z,76.15
2023-06-22T13:49:58.964Z,76.24
2023-06-22T13:52:25.998Z,75.47
2023-06-22T13:54:52.657Z,76.17
2023-06-22T13:57:19.341Z,75.59
2023-06-22T13:59:45.945Z,78.27
2023-06-22T14:02:12.521Z,77.14
2023-06-22T14:04:39.560Z,78.31
2023-06-22T14:07:06.291Z,78.68
2023-06-22T14:09:32.990Z,78.46
2023-06-22T14:12:04.812Z,79.49
2023-06-22T14:14:32.087Z,78.75
2023-06-22T14:16:58.650Z,77.57
2023-06-22T14:19:25.332Z,77.54
2023-06-22T14:21:51.906Z,78.67
2023-06-22T14:24:18.747Z,79.70
2023-06-22T14:26:45.336Z,79.88
2023-06-22T14:29:11.865Z,78.97
2023-06-22T14:31:38.622Z,79.48
2023-06-22T14:34:06.693Z,79.93
2023-06-22T14:36:33.403Z,81.37
2023-06-22T14:39:00.004Z,81.31
2023-06-22T14:41:26.547Z,80.21
2023-06-22T14:43:53.253Z,82.29
2023-06-22T14:46:21.256Z,80.10
2023-06-22T14:48:48.119Z,81.69
2023-06-22T14:51:17.479Z,82.25
2023-06-22T14:53:47.749Z,83.37
2023-06-22T14:56:16.540Z,82.11
2023-06-22T14:58:47.906Z,83.91
2023-06-22T15:01:15.708Z,83.20
2023-06-22T15:03:42.416Z,85.69
2023-06-22T15:06:09.868Z,84.79
2023-06-22T15:08:41.955Z,84.94
2023-06-22T15:11:09.381Z,85.75
2023-06-22T15:13:36.561Z,84.86
2023-06-22T15:16:06.772Z,84.06
2023-06-22T15:18:35.095Z,84.54
2023-06-22T15:21:05.391Z,86.80
2023-06-22T15:23:32.895Z,85.78
2023-06-22T15:26:00.237Z,85.97
2023-06-22T15:28:26.926Z,87.73
2023-06-22T15:30:53.800Z,88.40
2023-06-22T15:33:20.482Z,87.26
2023-06-22T15:35:47.378Z,85.42
2023-06-22T15:38:14.035Z,86.69
2023-06-22T15:40:40.595Z,87.20
2023-06-22T15:43:07.210Z,89.45
2023-06-22T15:45:33.849Z,89.98
2023-06-22T15:48:00.597Z,89.23
2023-06-22T15:50:27.380Z,90.50
2023-06-22T15:52:54.025Z,89.70
2023-06-22T15:55:20.781Z,89.67
2023-06-22T15:57:48.140Z,91.55
2023-06-22T16:00:18.971Z,91.29
2023-06-22T16:02:47.290Z,91.82
2023-06-22T16:05:14.243Z,92.70
2023-06-22T16:07:41.097Z,93.78
2023-06-22T16:10:08.549Z,95.00
2023-06-22T16:12:36.293Z,93.53
2023-06-22T16:15:06.278Z,96.46
2023-06-22T16:17:32.910Z,96.61
2023-06-22T16:20:00.776Z,98.04
2023-06-22T16:22:27.966Z,97.72
2023-06-22T16:24:56.916Z,98.81
2023-06-22T16:27:25.627Z,100.00
2023-06-22T16:29:52.457Z,99.11
2023-06-22T16:32:19.229Z,100.00
2023-06-22T16:34:48.856Z,100.00
2023-06-22T16:37:15.411Z,100.00
2023-06-22T16:39:42.005Z,100.00
2023-06-22T16:42:08.853Z,100.00
2023-06-22T16:44:35.997Z,100.00
2023-06-22T16:47:03.778Z,100.00
2023-06-22T16:49:30.389Z,100.00
2023-06-22T16:51:57.028Z,100.00
2023-06-22T16:54:25.157Z,100.00
2023-06-22T16:56:52.576Z,100.00
2023-06-22T16:59:19.296Z,100.00
2023-06-22T17:01:53.179Z,100.00
2023-06-22T17:04:24.083Z,100.00
2023-06-22T17:07:05.221Z,100.00
2023-06-22T17:09:33.310Z,100.00
2023-06-22T17:12:01.365Z,100.00
2023-06-22T17:14:28.318Z,100.00
2023-06-22T17:16:56.804Z,100.00
2023-06-22T17:19:24.332Z,100.00
2023-06-22T17:21:51.106Z,100.00
2023-06-22T17:24:19.055Z,100.00
2023-06-22T17:27:04.655Z,100.00
2023-06-22T17:29:41.544Z,100.00
2023-06-22T17:32:09.034Z,100.00
2023-06-22T17:34:36.491Z,100.00
2023-06-22T17:37:03.217Z,100.00
2023-06-22T17:39:30.395Z,100.00
2023-06-22T17:41:57.594Z,100.00
2023-06-22T17:44:27.952Z,100.00
2023-06-22T17:46:59.200Z,100.00
2023-06-22T17:49:33.183Z,100.00
2023-06-22T17:52:01.579Z,100.00
2023-06-22T17:54:39.870Z,100.00
2023-06-22T17:57:17.820Z,100.00
2023-06-22T17:59:51.653Z,100.00
2023-06-22T18:02:25.755Z,100.00
2023-06-22T18:04:58.947Z,100.00
2023-06-22T18:07:28.080Z,100.00
2023-06-22T18:09:55.274Z,100.00
2023-06-22T18:12:22.350Z,100.00
2023-06-22T18:14:49.705Z,100.00
2023-06-22T18:17:17.828Z,100.00
2023-06-22T18:19:47.454Z,100.00
2023-06-22T18:22:14.778Z,100.00
2023-06-22T18:24:41.787Z,100.00
2023-06-22T18:27:11.640Z,100.00
2023-06-22T18:29:40.447Z,100.00
2023-06-22T18:32:07.481Z,100.00
2023-06-22T18:34:34.696Z,100.00
2023-06-22T18:37:04.410Z,100.00
2023-06-22T18:39:33.159Z,100.00
2023-06-22T18:42:02.977Z,100.00
2023-06-22T18:44:33.790Z,100.00
2023-06-22T18:47:02.357Z,100.00
2023-06-22T18:49:33.928Z,100.00
2023-06-22T18:52:15.522Z,100.00
2023-06-22T18:54:52.025Z,100.00
2023-06-22T18:57:27.181Z,100.00
2023-06-22T18:59:57.045Z,100.00
2023-06-22T19:02:58.961Z,100.00
2023-06-22T19:05:42.444Z,100.00
2023-06-22T19:08:10.229Z,100.00
2023-06-22T19:10:39.468Z,100.00
2023-06-22T19:13:24.591Z,100.00
2023-06-22T19:16:02.046Z,100.00
2023-06-22T19:18:35.394Z,100.00
2023-06-22T19:21:07.733Z,100.00
2023-06-22T19:23:44.217Z,100.00
2023-06-22T19:26:12.023Z,100.00
2023-06-22T19:28:55.546Z,100.00
2023-06-22T19:31:24.732Z,100.00
2023-06-22T19:33:55.802Z,100.00
2023-06-22T19:36:23.148Z,100.00
2023-06-22T19:38:49.736Z,100.00
2023-06-22T19:41:16.534Z,100.00
2023-06-22T19:43:43.429Z,100.00
2023-06-22T19:46:10.060Z,100.00
2023-06-22T19:48:36.769Z,100.00
2023-06-22T19:51:05.969Z,100.00
2023-06-22T19:53:32.927Z,100.00
2023-06-22T19:55:59.873Z,100.00
2023-06-22T19:58:26.581Z,100.00
2023-06-22T20:00:56.220Z,100.00
2023-06-22T20:03:37.544Z,100.00
2023-06-22T20:06:12.549Z,100.00
2023-06-22T20:08:51.204Z,100.00
2023-06-22T20:11:30.378Z,100.00
2023-06-22T20:13:58.588Z,100.00
2023-06-22T20:16:26.132Z,100.00
2023-06-22T20:19:08.011Z,100.00
2023-06-22T20:21:35.004Z,100.00
2023-06-22T20:24:08.628Z,100.00
2023-06-22T20:26:42.919Z,100.00
2023-06-22T20:29:28.347Z,100.00
2023-06-22T20:32:08.629Z,100.00
2023-06-22T20:34:47.580Z,100.00
2023-06-22T20:37:15.763Z,100.00
2023-06-22T20:39:46.734Z,100.00
2023-06-22T20:42:15.618Z,100.00
2023-06-22T20:44:42.263Z,100.00
2023-06-22T20:47:11.324Z,100.00
2023-06-22T20:49:38.425Z,100.00
2023-06-22T20:52:07.662Z,100.00
2023-06-22T20:54:34.881Z,100.00
2023-06-22T20:57:01.498Z,100.00
2023-06-22T20:59:29.502Z,100.00
2023-06-22T21:01:57.501Z,100.00
2023-06-22T21:04:24.547Z,100.00
2023-06-22T21:06:51.116Z,100.00
2023-06-22T21:09:18.954Z,100.00
2023-06-22T21:11:45.518Z,100.00
2023-06-22T21:14:19.515Z,100.00
2023-06-22T21:16:48.641Z,100.00
2023-06-22T21:19:15.505Z,100.00
2023-06-22T21:21:42.179Z,100.00
2023-06-22T21:24:08.849Z,100.00
2023-06-22T21:26:35.437Z,100.00
2023-06-22T21:29:02.052Z,100.00
2023-06-22T21:31:28.641Z,100.00
2023-06-22T21:33:55.425Z,100.00
2023-06-22T21:36:22.023Z,100.00
2023-06-22T21:38:48.601Z,100.00
2023-06-22T21:41:15.152Z,100.00
2023-06-22T21:43:42.160Z,100.00
2023-06-22T21:46:08.702Z,100.00
2023-06-22T21:48:35.290Z,100.00
2023-06-22T21:51:01.997Z,100.00
2023-06-22T21:53:28.638Z,100.00
2023-06-22T21:55:55.412Z,100.00
2023-06-22T21:58:26.688Z,100.00
2023-06-22T22:00:56.059Z,100.00
2023-06-22T22:03:28.829Z,100.00
2023-06-22T22:05:56.731Z,100.00
2023-06-22T22:08:24.587Z,100.00
2023-06-22T22:10:51.299Z,100.00
2023-06-22T22:13:19.604Z,100.00
2023-06-22T22:15:46.524Z,100.00
2023-06-22T22:18:13.228Z,100.00
2023-06-22T22:20:40.656Z,100.00
2023-06-22T22:23:08.317Z,100.00
2023-06-22T22:25:35.288Z,100.00
2023-06-22T22:28:02.242Z,100.00
2023-06-22T22:30:28.915Z,100.00
2023-06-22T22:32:55.598Z,100.00
2023-06-22T22:35:22.293Z,100.00
2023-06-22T22:37:48.848Z,100.00
2023-06-22T22:40:15.398Z,100.00
2023-06-22T22:42:42.023Z,100.00
2023-06-22T22:45:09.155Z,100.00
2023-06-22T22:47:35.888Z,100.00
2023-06-22T22:50:02.688Z,100.00
2023-06-22T22:52:36.000Z,100.00
2023-06-22T22:55:10.549Z,100.00
2023-06-22T22:57:37.187Z,100.00
2023-06-22T23:00:05.054Z,100.00
2023-06-22T23:02:31.719Z,100.00
2023-06-22T23:05:00.122Z,100.00
2023-06-22T23:07:29.147Z,100.00
2023-06-22T23:09:56.570Z,100.00
2023-06-22T23:12:23.700Z,100.00
2023-06-22T23:14:53.181Z,100.00
2023-06-22T23:17:20.144Z,100.00
2023-06-22T23:19:47.631Z,100.00
2023-06-22T23:22:14.782Z,100.00
2023-06-22T23:24:41.655Z,100.00
2023-06-22T23:27:15.486Z,100.00
2023-06-22T23:29:45.089Z,100.00
2023-06-22T23:32:12.012Z,100.00
2023-06-22T23:34:38.709Z,100.00
2023-06-22T23:37:05.621Z,100.00
2023-06-22T23:39:32.363Z,100.00
2023-06-22T23:41:58.944Z,100.00
2023-06-22T23:44:26.036Z,100.00
2023-06-22T23:46:52.787Z,100.00
2023-06-22T23:49:19.461Z,100.00
2023-06-22T23:51:46.080Z,100.00
2023-06-22T23:54:12.704Z,100.00
2023-06-22T23:56:39.343Z,100.00
2023-06-22T23:59:05.941Z,100.00
